Aviation Digital Data Service (ADDS)

Output produced by METARs form (1156 UTC 22 March 2019)
found at http://www.aviationweather.gov/metar/data/
 
Forecast for: LERS (REUS (CIV/MIL) , ES)
Text: TAF LERS 220800Z 2209/2309 01006KT 9999 FEW030 TX21/2212Z TN07/2306Z
Forecast period: 0900 to 1100 UTC 22 March 2019
Forecast type: FROM: standard forecast or significant change
Winds: from the N (10 degrees) at 7 MPH (6 knots; 3.1 m/s)
Visibility: 6 or more miles 10+ km)
Ceiling: at least 12,000 feet AGL
Clouds: few clouds at 3000 feet AGL
Weather: no significant weather forecast for this period
Text: BECMG 2211/2214 12010KT
Forecast period: 1100 to 1800 UTC 22 March 2019
Forecast type: BECOMING: Conditions expected to become as follows by 1400 UTC 22 March 2019
Winds: from the ESE (120 degrees) at 12 MPH (10 knots; 5.1 m/s)
Visibility: 6 or more miles 10+ km)
Ceiling: at least 12,000 feet AGL
Clouds: few clouds at 3000 feet AGL
Weather: no significant weather forecast for this period
Text: BECMG 2218/2220 35006KT
Forecast period: 1800 UTC 22 March 2019 to 0900 UTC 23 March 2019
Forecast type: BECOMING: Conditions expected to become as follows by 2000 UTC 22 March 2019
Winds: from the N (350 degrees) at 7 MPH (6 knots; 3.1 m/s)
Visibility: 6 or more miles 10+ km)
Ceiling: at least 12,000 feet AGL
Clouds: few clouds at 3000 feet AGL
Weather: no significant weather forecast for this period